Time;durP1;ratioP1;P1;durP2;ratioP2;P2;SDS_P1;SDS_P2;PMS_P1;PMS_P2;Temp;Humidity;BMP_temperature;BMP_pressure;BME280_temperature;BME280_humidity;BME280_pressure;Samples;Min_cycle;Max_cycle;Signal;HPM_P1;HPM_P2
2022/10/22 00:00:00;;;;;;;0.70;0.60;;;;;;;21.85;37.00;100632.94;4970232;28;20038;-84
2022/10/22 00:02:26;;;;;;;1.02;0.80;;;;;;;22.11;36.75;100628.56;4962249;28;20447;-84
2022/10/22 00:04:52;;;;;;;0.60;0.60;;;;;;;22.19;36.43;100616.38;4972511;28;20031;-84
2022/10/22 00:07:18;;;;;;;0.80;0.63;;;;;;;22.34;36.26;100631.22;4958748;28;20023;-84
2022/10/22 00:09:44;;;;;;;1.08;0.70;;;;;;;22.29;36.20;100621.94;4975274;28;20388;-83
2022/10/22 00:12:10;;;;;;;1.15;0.60;;;;;;;22.11;36.48;100623.13;4969372;28;20113;-84
2022/10/22 00:14:36;;;;;;;0.77;0.65;;;;;;;21.99;36.83;100632.50;4972406;28;20114;-84
2022/10/22 00:17:01;;;;;;;1.00;0.75;;;;;;;21.83;37.12;100628.84;4968893;28;20050;-84
2022/10/22 00:19:27;;;;;;;0.90;0.80;;;;;;;21.71;37.38;100628.97;4977521;28;20068;-84
2022/10/22 00:21:53;;;;;;;0.98;0.70;;;;;;;21.57;37.50;100628.56;4976692;28;20571;-84
2022/10/22 00:24:18;;;;;;;1.42;0.63;;;;;;;21.36;38.00;100622.03;4969244;28;20034;-84
2022/10/22 00:26:44;;;;;;;1.00;0.70;;;;;;;21.30;37.80;100623.88;4974955;28;20439;-84
2022/10/22 00:29:10;;;;;;;0.70;0.70;;;;;;;21.29;37.70;100624.94;4975597;28;20117;-84
2022/10/22 00:31:35;;;;;;;1.33;0.80;;;;;;;21.26;37.65;100627.34;4960274;28;20023;-84
2022/10/22 00:34:01;;;;;;;0.80;0.80;;;;;;;21.12;38.08;100626.91;4965693;28;20340;-83
2022/10/22 00:36:26;;;;;;;0.77;0.77;;;;;;;21.11;38.23;100620.66;4983400;28;20479;-84
2022/10/22 00:38:52;;;;;;;0.68;0.68;;;;;;;21.28;37.95;100623.28;4982909;28;20506;-84
2022/10/22 00:41:18;;;;;;;0.93;0.63;;;;;;;21.54;37.42;100619.03;4968711;28;20490;-84
2022/10/22 00:44:03;;;;;;;0.73;0.70;;;;;;;21.83;37.04;100613.31;4968784;28;20037;-84
2022/10/22 00:46:28;;;;;;;0.60;0.60;;;;;;;22.11;36.44;100611.38;4955414;28;20098;-84
2022/10/22 00:48:54;;;;;;;1.67;0.70;;;;;;;22.29;36.28;100608.31;4976402;28;20030;-83
2022/10/22 00:51:20;;;;;;;0.82;0.75;;;;;;;22.37;36.08;100608.91;4954328;28;20126;-84
2022/10/22 00:53:52;;;;;;;0.98;0.77;;;;;;;22.29;36.24;100600.16;4950801;28;20024;-84
2022/10/22 00:56:19;;;;;;;1.38;0.80;;;;;;;22.12;36.62;100607.59;4977384;28;20027;-84
2022/10/22 00:58:52;;;;;;;1.67;0.88;;;;;;;21.98;36.82;100606.41;4949607;28;20023;-84
2022/10/22 01:01:22;;;;;;;0.98;0.85;;;;;;;21.80;37.09;100605.69;4965206;28;20424;-84
2022/10/22 01:03:47;;;;;;;1.48;0.70;;;;;;;21.69;37.37;100598.50;4960135;28;20042;-84
2022/10/22 01:06:18;;;;;;;0.80;0.55;;;;;;;21.51;37.71;100603.22;4975707;28;20252;-84
2022/10/22 01:09:05;;;;;;;0.75;0.68;;;;;;;21.31;37.81;100598.31;4971962;28;20026;-84
2022/10/22 01:11:40;;;;;;;0.80;0.70;;;;;;;21.25;37.69;100596.63;4959389;28;20018;-84
2022/10/22 01:14:27;;;;;;;1.00;0.68;;;;;;;21.28;37.51;100592.56;4960631;28;20031;-84
2022/10/22 01:17:05;;;;;;;0.95;0.70;;;;;;;21.17;37.79;100595.16;4979626;28;20046;-84
2022/10/22 01:19:49;;;;;;;1.33;0.70;;;;;;;21.14;38.14;100595.66;4975820;28;20496;-84
2022/10/22 01:22:41;;;;;;;1.63;0.85;;;;;;;21.26;37.96;100583.88;4960905;28;20037;-84
2022/10/22 01:25:25;;;;;;;1.42;0.70;;;;;;;21.55;37.42;100592.66;4976414;28;20054;-84
2022/10/22 01:28:09;;;;;;;0.75;0.63;;;;;;;21.88;36.92;100582.63;4955644;28;20067;-84
2022/10/22 01:30:35;;;;;;;0.60;0.60;;;;;;;22.16;36.46;100580.69;4982816;28;20272;-84
2022/10/22 01:33:02;;;;;;;2.15;0.60;;;;;;;22.31;36.14;100575.38;4971839;28;20031;-84
2022/10/22 01:35:33;;;;;;;0.95;0.80;;;;;;;22.36;36.20;100569.16;4955399;28;20068;-84
2022/10/22 01:38:01;;;;;;;0.50;0.50;;;;;;;22.29;36.18;100575.66;4957260;28;20034;-84
2022/10/22 01:40:27;;;;;;;0.73;0.70;;;;;;;22.13;36.44;100579.31;4939316;28;20031;-84
2022/10/22 01:42:57;;;;;;;0.70;0.60;;;;;;;21.99;36.82;100581.66;4959698;28;20358;-84
2022/10/22 01:45:23;;;;;;;0.85;0.50;;;;;;;21.75;37.15;100567.56;4966485;28;20484;-84
2022/10/22 01:47:55;;;;;;;0.95;0.70;;;;;;;21.67;37.32;100582.44;4957422;28;20059;-84
2022/10/22 01:50:45;;;;;;;0.75;0.65;;;;;;;21.51;37.41;100586.09;4977378;28;20062;-84
2022/10/22 01:53:34;;;;;;;0.65;0.65;;;;;;;21.25;37.83;100583.06;4972960;28;20022;-84
2022/10/22 01:56:16;;;;;;;0.77;0.70;;;;;;;21.24;37.67;100575.16;4968394;28;20037;-84
2022/10/22 01:58:51;;;;;;;1.30;0.80;;;;;;;21.26;37.62;100583.88;4959248;28;20023;-84
2022/10/22 02:01:25;;;;;;;0.95;0.73;;;;;;;21.11;38.18;100577.19;4973036;28;20030;-84
2022/10/22 02:04:22;;;;;;;1.42;0.80;;;;;;;21.20;37.98;100581.09;4934599;28;20027;-84
2022/10/22 02:06:49;;;;;;;1.10;0.63;;;;;;;21.42;37.67;100577.53;4963883;28;20061;-84
2022/10/22 02:09:15;;;;;;;0.82;0.73;;;;;;;21.69;37.18;100583.00;4973291;28;20078;-84
2022/10/22 02:11:41;;;;;;;0.70;0.60;;;;;;;21.97;36.77;100577.53;4937459;28;20030;-84
2022/10/22 02:14:06;;;;;;;0.65;0.65;;;;;;;22.22;36.25;100564.13;4979850;28;20424;-84
2022/10/22 02:16:43;;;;;;;0.70;0.70;;;;;;;22.38;36.19;100567.00;4975100;28;20032;-84
2022/10/22 02:19:34;;;;;;;1.98;0.73;;;;;;;22.42;36.05;100563.50;4960267;28;20073;-84
2022/10/22 02:21:59;;;;;;;0.80;0.60;;;;;;;22.27;36.32;100558.75;4950203;28;20121;-84
2022/10/22 02:24:25;;;;;;;0.70;0.70;;;;;;;22.12;36.54;100564.06;4976597;28;20103;-84
2022/10/22 02:27:08;;;;;;;1.58;0.63;;;;;;;21.96;36.84;100556.88;4990240;28;20030;-84
2022/10/22 02:29:48;;;;;;;1.00;0.80;;;;;;;21.73;37.13;100551.50;4973528;28;20026;-84
2022/10/22 02:32:16;;;;;;;0.60;0.60;;;;;;;21.67;37.26;100557.94;4943408;28;20023;-84
2022/10/22 02:34:42;;;;;;;1.35;0.70;;;;;;;21.40;37.69;100547.03;4970843;28;20026;-84
2022/10/22 02:37:07;;;;;;;0.93;0.57;;;;;;;21.27;37.60;100540.13;4980238;28;20153;-84
2022/10/22 02:39:33;;;;;;;2.15;0.77;;;;;;;21.32;37.50;100544.81;4952950;28;20039;-84
2022/10/22 02:42:00;;;;;;;2.08;0.63;;;;;;;21.22;37.75;100550.13;4974600;28;20105;-84
2022/10/22 02:44:26;;;;;;;0.70;0.60;;;;;;;21.15;38.12;100553.84;4983224;28;20408;-86
2022/10/22 02:46:52;;;;;;;0.88;0.88;;;;;;;21.22;37.88;100545.50;4974569;28;20030;-84
2022/10/22 02:49:17;;;;;;;1.05;0.80;;;;;;;21.44;37.55;100536.47;4981076;28;20077;-85
2022/10/22 02:51:43;;;;;;;1.15;0.73;;;;;;;21.72;37.06;100538.16;4958676;28;20101;-85
2022/10/22 02:54:09;;;;;;;2.47;0.73;;;;;;;21.97;36.69;100528.56;4971256;28;20035;-84
2022/10/22 02:56:35;;;;;;;1.00;0.82;;;;;;;22.24;36.39;100532.03;4957391;28;20498;-84
2022/10/22 02:59:00;;;;;;;0.98;0.65;;;;;;;22.38;36.14;100537.03;4970762;28;20026;-84
2022/10/22 03:01:26;;;;;;;1.00;0.60;;;;;;;22.44;36.09;100536.81;4975070;28;20499;-84
2022/10/22 03:03:51;;;;;;;0.90;0.70;;;;;;;22.37;35.92;100527.22;4968027;28;20067;-84
2022/10/22 03:06:17;;;;;;;0.80;0.70;;;;;;;22.21;36.30;100518.94;4977499;28;20046;-84
2022/10/22 03:08:42;;;;;;;0.80;0.73;;;;;;;22.03;36.79;100524.81;4978810;28;20030;-84
2022/10/22 03:11:08;;;;;;;1.00;0.90;;;;;;;21.83;36.94;100528.97;4969885;28;20196;-84
2022/10/22 03:13:34;;;;;;;2.15;0.85;;;;;;;21.74;37.16;100536.00;4963976;28;20479;-84
2022/10/22 03:15:59;;;;;;;1.17;0.77;;;;;;;21.61;37.32;100525.53;4976157;28;20066;-84
2022/10/22 03:18:25;;;;;;;0.90;0.70;;;;;;;21.36;37.54;100519.53;4950269;28;20419;-84
2022/10/22 03:21:00;;;;;;;1.13;0.80;;;;;;;21.28;37.61;100516.47;4978135;28;20540;-84
2022/10/22 03:23:25;;;;;;;0.50;0.50;;;;;;;21.24;37.62;100523.50;4954274;28;20033;-84
2022/10/22 03:25:51;;;;;;;1.30;0.80;;;;;;;21.17;38.19;100519.06;4976617;28;20038;-84
2022/10/22 03:28:17;;;;;;;0.57;0.57;;;;;;;21.26;37.92;100522.16;4954848;28;20502;-84
2022/10/22 03:30:42;;;;;;;1.23;0.70;;;;;;;21.47;37.44;100517.81;4960485;28;20018;-84
2022/10/22 03:33:08;;;;;;;2.22;0.80;;;;;;;21.78;37.17;100518.06;4962563;28;20106;-84
2022/10/22 03:35:36;;;;;;;0.70;0.60;;;;;;;22.03;36.53;100511.19;4966373;28;20034;-84
2022/10/22 03:38:02;;;;;;;0.77;0.70;;;;;;;22.32;36.07;100514.41;4957401;28;20026;-84
2022/10/22 03:40:27;;;;;;;4.32;0.75;;;;;;;22.45;35.75;100510.41;4970997;28;20480;-84
2022/10/22 03:42:53;;;;;;;1.27;0.57;;;;;;;22.48;35.91;100512.59;4960412;28;20034;-84
2022/10/22 03:45:19;;;;;;;1.40;0.60;;;;;;;22.30;36.03;100490.19;4981448;28;20041;-84
2022/10/22 03:47:44;;;;;;;0.88;0.75;;;;;;;22.23;36.33;100505.91;4966115;28;20035;-84
2022/10/22 03:50:10;;;;;;;1.50;0.80;;;;;;;22.07;36.42;100510.41;4959264;28;20034;-84
2022/10/22 03:52:37;;;;;;;0.70;0.68;;;;;;;21.90;36.94;100504.28;4978380;28;20026;-84
2022/10/22 03:55:03;;;;;;;1.38;0.70;;;;;;;21.72;37.00;100494.63;4967146;28;20026;-84
2022/10/22 03:57:28;;;;;;;0.57;0.57;;;;;;;21.65;37.19;100494.03;4953860;28;20135;-84
2022/10/22 03:59:54;;;;;;;0.77;0.70;;;;;;;21.26;37.50;100473.25;4969801;28;20113;-84
2022/10/22 04:02:20;;;;;;;0.90;0.60;;;;;;;21.34;37.74;100493.72;4988471;28;20113;-84
2022/10/22 04:04:46;;;;;;;0.80;0.80;;;;;;;21.32;37.77;100495.88;4966413;28;20114;-84
2022/10/22 04:07:11;;;;;;;0.70;0.68;;;;;;;21.34;37.75;100501.88;4968224;28;20113;-84
2022/10/22 04:09:39;;;;;;;0.50;0.50;;;;;;;21.47;37.42;100498.78;4973156;28;20113;-84
2022/10/22 04:12:06;;;;;;;0.60;0.60;;;;;;;21.74;37.02;100487.84;4969067;28;20030;-84
2022/10/22 04:14:32;;;;;;;3.03;1.00;;;;;;;22.04;36.51;100481.00;4973995;28;20109;-84
2022/10/22 04:16:58;;;;;;;0.80;0.80;;;;;;;22.25;36.32;100487.41;4970081;28;20074;-85
2022/10/22 04:19:23;;;;;;;0.88;0.73;;;;;;;22.42;36.03;100480.97;4953177;28;20057;-84
2022/10/22 04:21:49;;;;;;;0.82;0.60;;;;;;;22.51;35.75;100479.41;4974893;28;20026;-84
2022/10/22 04:24:14;;;;;;;0.60;0.60;;;;;;;22.48;35.80;100474.47;4962818;28;20259;-84
2022/10/22 04:26:40;;;;;;;1.73;0.98;;;;;;;22.37;36.06;100478.22;4963096;28;20039;-84
2022/10/22 04:29:06;;;;;;;0.65;0.57;;;;;;;22.19;36.17;100479.47;4967137;28;20448;-84
2022/10/22 04:31:31;;;;;;;1.00;0.65;;;;;;;22.01;36.54;100475.25;4971720;28;20121;-84
2022/10/22 04:33:58;;;;;;;1.25;0.88;;;;;;;21.85;36.88;100480.59;4966649;28;20027;-84
2022/10/22 04:36:23;;;;;;;0.80;0.80;;;;;;;21.76;37.07;100484.88;4967877;28;20026;-84
2022/10/22 04:38:57;;;;;;;0.70;0.68;;;;;;;21.52;37.33;100474.31;4982446;28;20030;-84
2022/10/22 04:41:28;;;;;;;0.70;0.52;;;;;;;21.43;37.28;100481.28;4962046;28;20027;-84
2022/10/22 04:43:54;;;;;;;1.38;0.68;;;;;;;21.33;37.78;100481.19;4952807;28;20109;-84
2022/10/22 04:46:20;;;;;;;1.98;0.77;;;;;;;21.26;37.83;100475.97;4971005;28;20034;-84
2022/10/22 04:48:45;;;;;;;0.60;0.60;;;;;;;21.42;37.59;100476.94;4944843;28;20134;-84
2022/10/22 04:51:15;;;;;;;1.00;0.90;;;;;;;21.68;37.01;100475.28;4973025;28;20019;-84
2022/10/22 04:53:41;;;;;;;0.60;0.60;;;;;;;21.96;36.45;100467.06;4970945;28;20026;-84
2022/10/22 04:56:12;;;;;;;0.70;0.50;;;;;;;22.22;36.06;100471.59;4964672;28;20077;-84
2022/10/22 04:58:38;;;;;;;0.80;0.52;;;;;;;22.43;35.79;100477.16;4970384;28;20584;-84
2022/10/22 05:01:17;;;;;;;1.42;0.82;;;;;;;22.52;35.80;100472.84;4968818;28;20022;-84
2022/10/22 05:03:43;;;;;;;1.83;0.70;;;;;;;22.50;35.65;100470.38;4971393;28;20033;-84
2022/10/22 05:06:08;;;;;;;0.80;0.80;;;;;;;22.41;35.97;100473.91;4968959;28;20034;-84
2022/10/22 05:08:34;;;;;;;0.85;0.80;;;;;;;22.27;36.00;100477.09;4975625;28;20023;-84
2022/10/22 05:10:59;;;;;;;0.88;0.77;;;;;;;22.05;36.45;100479.91;4971201;28;20733;-84
2022/10/22 05:13:25;;;;;;;1.15;0.70;;;;;;;21.90;36.80;100480.63;4971381;28;20306;-84
2022/10/22 05:15:51;;;;;;;1.00;0.70;;;;;;;21.76;36.94;100479.41;4981219;28;20038;-84
2022/10/22 05:18:16;;;;;;;2.08;0.60;;;;;;;21.59;37.36;100468.66;4984447;28;20042;-84
2022/10/22 05:20:42;;;;;;;1.05;0.80;;;;;;;21.45;36.99;100476.41;4985175;28;20398;-84
2022/10/22 05:23:08;;;;;;;1.25;1.00;;;;;;;21.31;37.54;100467.03;4969649;28;20022;-84
2022/10/22 05:25:37;;;;;;;2.03;0.70;;;;;;;21.32;37.75;100474.13;4969120;28;20025;-84
2022/10/22 05:28:03;;;;;;;0.70;0.70;;;;;;;21.43;37.49;100470.41;4971856;28;20117;-84
2022/10/22 05:30:28;;;;;;;0.95;0.70;;;;;;;21.63;37.05;100464.38;4968751;28;20033;-84
2022/10/22 05:32:54;;;;;;;1.80;0.70;;;;;;;21.92;36.60;100467.59;4980379;28;20026;-84
2022/10/22 05:35:20;;;;;;;0.93;0.80;;;;;;;22.19;36.22;100465.84;4967785;28;20035;-83
2022/10/22 05:37:45;;;;;;;0.75;0.75;;;;;;;22.45;35.90;100458.66;4973919;28;20440;-84
2022/10/22 05:40:11;;;;;;;0.82;0.70;;;;;;;22.58;35.58;100458.19;4967471;28;20033;-84
2022/10/22 05:42:36;;;;;;;1.88;0.80;;;;;;;22.58;35.55;100457.38;4976881;28;20027;-84
2022/10/22 05:45:02;;;;;;;2.25;0.70;;;;;;;22.52;35.80;100461.97;4963572;28;20030;-84
2022/10/22 05:47:29;;;;;;;1.25;0.60;;;;;;;22.35;35.86;100453.16;4970357;28;20023;-83
2022/10/22 05:49:56;;;;;;;0.90;0.70;;;;;;;22.15;36.32;100449.22;4976244;28;20488;-84
2022/10/22 05:52:22;;;;;;;0.82;0.70;;;;;;;22.02;36.52;100446.97;4972955;28;20054;-84
2022/10/22 05:54:48;;;;;;;1.23;0.85;;;;;;;21.85;36.85;100444.41;4978151;28;20023;-84
2022/10/22 05:57:13;;;;;;;0.68;0.60;;;;;;;21.66;37.16;100444.81;4984892;28;20394;-84
2022/10/22 05:59:39;;;;;;;1.67;0.60;;;;;;;21.49;37.33;100444.94;4973503;28;20031;-84
2022/10/22 06:02:05;;;;;;;0.93;0.85;;;;;;;21.45;37.48;100441.06;4988603;28;20030;-84
2022/10/22 06:04:31;;;;;;;1.17;0.60;;;;;;;21.36;37.48;100443.44;4953577;28;20041;-84
2022/10/22 06:06:56;;;;;;;1.52;0.70;;;;;;;21.32;37.78;100436.06;4975666;28;20039;-84
2022/10/22 06:09:29;;;;;;;0.52;0.52;;;;;;;21.39;37.61;100433.97;4969183;28;20062;-84
2022/10/22 06:11:55;;;;;;;1.52;0.60;;;;;;;21.61;37.13;100443.94;4951517;28;20026;-84
2022/10/22 06:14:21;;;;;;;0.55;0.55;;;;;;;21.88;36.66;100439.25;4981703;28;20069;-84
2022/10/22 06:16:47;;;;;;;0.70;0.60;;;;;;;22.18;36.33;100437.81;4975565;28;20054;-85
2022/10/22 06:19:15;;;;;;;0.60;0.60;;;;;;;22.42;35.94;100437.41;4982317;28;20022;-84
2022/10/22 06:21:40;;;;;;;0.57;0.57;;;;;;;22.44;35.94;100432.53;4974119;28;20066;-84
2022/10/22 06:24:06;;;;;;;0.90;0.70;;;;;;;22.52;35.79;100433.91;4979508;28;20454;-84
2022/10/22 06:26:32;;;;;;;1.02;0.70;;;;;;;22.45;35.97;100442.31;4973540;28;20054;-84
2022/10/22 06:28:58;;;;;;;1.05;0.70;;;;;;;22.26;36.10;100428.31;4971835;28;20120;-84
2022/10/22 06:31:24;;;;;;;2.08;0.68;;;;;;;22.11;36.52;100437.22;4982983;28;20049;-84
2022/10/22 06:33:49;;;;;;;1.40;0.70;;;;;;;21.97;36.60;100452.38;4959477;28;20488;-84
2022/10/22 06:36:17;;;;;;;1.35;0.60;;;;;;;21.83;37.03;100454.72;4972051;28;20039;-84
2022/10/22 06:38:43;;;;;;;0.60;0.60;;;;;;;21.65;37.33;100447.81;4984553;28;20030;-84
2022/10/22 06:41:10;;;;;;;1.80;0.70;;;;;;;21.47;37.44;100447.13;4976615;28;20436;-84
2022/10/22 06:43:36;;;;;;;0.93;0.70;;;;;;;21.44;37.38;100450.31;4981286;28;20499;-84
2022/10/22 06:46:02;;;;;;;1.10;0.63;;;;;;;21.41;37.33;100456.25;4968807;28;20031;-84
2022/10/22 06:48:28;;;;;;;1.75;0.65;;;;;;;21.28;37.82;100446.63;4937474;28;20027;-84
2022/10/22 06:50:54;;;;;;;2.53;0.65;;;;;;;21.26;38.15;100453.41;4960827;28;20468;-84
2022/10/22 06:53:19;;;;;;;0.90;0.70;;;;;;;21.39;37.69;100453.00;4957926;28;20030;-84
2022/10/22 06:55:45;;;;;;;0.70;0.60;;;;;;;21.59;37.27;100451.53;4989638;28;20053;-84
2022/10/22 06:58:11;;;;;;;1.80;0.60;;;;;;;21.89;36.98;100459.13;4979025;28;20105;-84
2022/10/22 07:00:36;;;;;;;0.80;0.70;;;;;;;22.01;36.49;100424.38;4983810;28;20090;-84
2022/10/22 07:03:02;;;;;;;0.65;0.60;;;;;;;22.27;36.26;100438.13;4977353;28;20035;-84
2022/10/22 07:05:32;;;;;;;0.52;0.52;;;;;;;22.46;36.14;100457.59;4955269;28;20037;-84
2022/10/22 07:07:58;;;;;;;0.98;0.65;;;;;;;22.44;36.16;100457.84;4979587;28;20030;-84
2022/10/22 07:10:23;;;;;;;0.70;0.68;;;;;;;22.25;36.30;100443.00;4970624;28;20487;-83
2022/10/22 07:12:49;;;;;;;1.10;0.70;;;;;;;22.17;36.57;100447.06;4961752;28;20023;-84
2022/10/22 07:15:17;;;;;;;0.68;0.63;;;;;;;21.98;37.01;100456.75;4976136;28;20033;-84
2022/10/22 07:17:43;;;;;;;0.57;0.57;;;;;;;21.81;37.32;100457.69;4966674;28;20045;-84
2022/10/22 07:20:09;;;;;;;0.93;0.75;;;;;;;21.70;37.47;100453.28;4957565;28;20122;-84
2022/10/22 07:22:34;;;;;;;0.73;0.60;;;;;;;21.50;37.82;100454.72;4971736;28;20041;-84
2022/10/22 07:25:00;;;;;;;0.63;0.63;;;;;;;21.40;37.78;100451.88;4973442;28;20042;-84
2022/10/22 07:27:26;;;;;;;1.33;0.63;;;;;;;21.43;37.57;100450.56;4977784;28;20435;-83
2022/10/22 07:29:51;;;;;;;0.73;0.50;;;;;;;21.37;37.66;100452.44;4966978;28;20121;-83
2022/10/22 07:32:17;;;;;;;1.27;0.70;;;;;;;21.22;37.98;100435.97;4983714;28;20062;-83
2022/10/22 07:34:42;;;;;;;0.95;0.90;;;;;;;21.18;38.34;100441.91;4964671;28;20030;-84
2022/10/22 07:37:08;;;;;;;0.63;0.60;;;;;;;21.27;38.16;100449.63;4976158;28;20135;-84
2022/10/22 07:39:34;;;;;;;1.90;0.70;;;;;;;21.48;37.77;100448.75;4984101;28;20125;-83
2022/10/22 07:41:59;;;;;;;1.38;0.60;;;;;;;21.76;37.33;100452.22;4971128;28;20518;-84
2022/10/22 07:44:25;;;;;;;0.47;0.47;;;;;;;22.03;36.92;100454.06;4972808;28;20037;-84
2022/10/22 07:46:50;;;;;;;0.80;0.60;;;;;;;22.23;36.63;100450.63;4968388;28;20568;-84
2022/10/22 07:49:16;;;;;;;1.48;0.73;;;;;;;22.31;36.59;100448.25;4975607;28;20031;-84
2022/10/22 07:51:41;;;;;;;0.57;0.57;;;;;;;22.33;36.56;100447.16;4969402;28;20392;-84
2022/10/22 07:54:07;;;;;;;1.60;0.68;;;;;;;22.14;36.73;100436.69;4973580;28;20030;-84
2022/10/22 07:56:33;;;;;;;1.40;0.63;;;;;;;22.07;36.90;100447.00;4956624;28;20382;-84
2022/10/22 07:58:58;;;;;;;0.60;0.60;;;;;;;21.92;37.25;100451.25;4970037;28;20041;-84
2022/10/22 08:01:24;;;;;;;0.60;0.60;;;;;;;21.79;37.45;100448.19;4957543;28;20034;-84
2022/10/22 08:03:49;;;;;;;0.90;0.70;;;;;;;21.64;37.75;100449.69;4953449;28;20110;-84
2022/10/22 08:06:16;;;;;;;1.20;0.70;;;;;;;21.50;38.01;100443.84;4973758;28;20042;-84
2022/10/22 08:08:44;;;;;;;0.50;0.50;;;;;;;21.39;38.21;100450.28;4983181;28;20495;-83
2022/10/22 08:11:10;;;;;;;1.50;0.70;;;;;;;21.35;37.86;100435.53;4968578;28;20046;-84
2022/10/22 08:13:36;;;;;;;2.40;0.70;;;;;;;21.36;37.95;100442.63;4980342;28;20022;-84
2022/10/22 08:16:01;;;;;;;0.95;0.70;;;;;;;21.25;38.25;100451.75;4969645;28;20070;-84
2022/10/22 08:18:27;;;;;;;0.82;0.60;;;;;;;21.16;38.35;100448.69;4969117;28;20129;-84
2022/10/22 08:20:52;;;;;;;0.68;0.63;;;;;;;21.07;38.70;100445.59;4977845;28;20035;-84
2022/10/22 08:23:18;;;;;;;0.60;0.60;;;;;;;21.07;38.77;100444.78;4969777;28;20031;-84
2022/10/22 08:25:44;;;;;;;1.63;0.70;;;;;;;21.18;38.22;100441.91;4968856;28;20029;-84
2022/10/22 08:28:10;;;;;;;0.90;0.60;;;;;;;21.46;37.99;100433.75;4963051;28;20042;-84
2022/10/22 08:30:37;;;;;;;1.17;0.60;;;;;;;21.72;37.59;100435.59;4980039;28;20150;-84
2022/10/22 08:33:04;;;;;;;1.00;0.70;;;;;;;21.97;37.29;100434.13;4968836;28;20361;-84
2022/10/22 08:35:29;;;;;;;0.85;0.70;;;;;;;22.17;36.95;100435.34;4955022;28;20578;-84
2022/10/22 08:37:55;;;;;;;1.38;0.80;;;;;;;22.21;36.95;100429.09;4978857;28;20046;-84
2022/10/22 08:40:31;;;;;;;1.08;0.70;;;;;;;22.15;36.99;100426.63;4966599;28;20058;-84
2022/10/22 08:43:16;;;;;;;0.95;0.75;;;;;;;21.99;37.29;100429.28;4933651;28;20467;-84
2022/10/22 08:46:17;;;;;;;0.70;0.68;;;;;;;21.82;37.71;100434.88;4952218;28;20028;-84
2022/10/22 08:48:53;;;;;;;0.80;0.70;;;;;;;21.64;37.80;100422.47;4975736;28;20037;-84
2022/10/22 08:51:20;;;;;;;0.73;0.68;;;;;;;21.52;38.07;100419.94;4960775;28;20106;-84
2022/10/22 08:53:51;;;;;;;0.65;0.50;;;;;;;21.36;38.43;100415.44;4931337;28;20089;-84
2022/10/22 08:56:16;;;;;;;2.22;0.75;;;;;;;21.25;38.82;100421.84;4960606;28;20049;-84
2022/10/22 08:58:47;;;;;;;0.90;0.70;;;;;;;21.18;38.51;100408.50;4966473;28;20421;-84
2022/10/22 09:01:22;;;;;;;0.40;0.40;;;;;;;21.20;38.50;100423.44;4956127;28;20515;-84
2022/10/22 09:04:05;;;;;;;3.75;0.77;;;;;;;21.16;38.41;100421.50;4971611;28;20247;-84
2022/10/22 09:06:32;;;;;;;1.05;0.70;;;;;;;21.10;38.69;100415.19;4952438;28;20492;-84
2022/10/22 09:08:58;;;;;;;1.10;0.70;;;;;;;21.03;38.87;100414.59;4960182;28;20380;-84
2022/10/22 09:11:35;;;;;;;1.42;0.60;;;;;;;20.94;38.91;100421.56;4971193;28;20038;-84
2022/10/22 09:14:00;;;;;;;0.73;0.65;;;;;;;20.91;39.16;100419.38;4970458;28;20141;-84
2022/10/22 09:16:52;;;;;;;0.85;0.47;;;;;;;21.03;38.98;100411.88;4965235;28;20158;-84
2022/10/22 09:19:33;;;;;;;0.93;0.68;;;;;;;21.34;38.44;100406.72;4959100;28;20059;-84
2022/10/22 09:22:20;;;;;;;1.30;0.70;;;;;;;21.63;37.95;100406.41;4972645;28;20035;-84
2022/10/22 09:24:47;;;;;;;0.52;0.52;;;;;;;21.86;37.67;100407.97;4977860;28;20085;-84
2022/10/22 09:27:22;;;;;;;1.38;0.70;;;;;;;21.98;37.54;100399.59;4980744;28;20118;-84
2022/10/22 09:29:48;;;;;;;0.60;0.60;;;;;;;21.99;37.62;100398.50;4972861;28;20073;-84
2022/10/22 09:32:14;;;;;;;0.70;0.70;;;;;;;21.91;37.54;100400.63;4981297;28;20113;-84
2022/10/22 09:34:42;;;;;;;0.77;0.70;;;;;;;21.78;37.80;100403.81;4938923;28;20410;-84
2022/10/22 09:37:08;;;;;;;0.60;0.57;;;;;;;21.61;38.24;100390.41;4975733;28;20034;-84
2022/10/22 09:39:39;;;;;;;0.77;0.70;;;;;;;21.54;38.32;100393.34;4948151;28;20069;-84
2022/10/22 09:42:05;;;;;;;2.15;0.73;;;;;;;21.41;38.52;100393.75;4957303;28;20023;-84
2022/10/22 09:44:35;;;;;;;1.65;0.90;;;;;;;21.30;38.74;100401.00;4960983;28;20034;-84
2022/10/22 09:47:24;;;;;;;1.10;0.85;;;;;;;21.13;39.10;100394.88;4976056;28;20063;-84
2022/10/22 09:49:55;;;;;;;1.38;0.90;;;;;;;21.08;39.18;100392.91;4966538;28;20031;-84
2022/10/22 09:52:26;;;;;;;1.13;0.70;;;;;;;21.07;39.14;100385.81;4947804;28;20027;-84
2022/10/22 09:54:52;;;;;;;0.80;0.63;;;;;;;21.04;39.06;100388.25;4959201;28;20566;-84
2022/10/22 09:57:20;;;;;;;1.13;0.68;;;;;;;20.95;38.96;100377.81;4974317;28;20177;-84
2022/10/22 09:59:47;;;;;;;0.80;0.60;;;;;;;20.97;39.11;100385.72;4967711;28;20034;-84
2022/10/22 10:02:26;;;;;;;0.75;0.70;;;;;;;20.92;39.07;100367.50;4984011;28;20503;-84
2022/10/22 10:04:54;;;;;;;0.60;0.60;;;;;;;20.85;39.18;100372.28;4970774;28;20185;-84
2022/10/22 10:07:25;;;;;;;0.85;0.80;;;;;;;20.74;39.85;100368.66;4961034;28;20515;-84
2022/10/22 10:09:52;;;;;;;1.10;0.80;;;;;;;20.81;39.62;100365.75;4972337;28;20031;-84
2022/10/22 10:12:43;;;;;;;0.68;0.68;;;;;;;21.04;39.09;100364.63;4951468;28;20395;-84
2022/10/22 10:15:18;;;;;;;1.55;0.70;;;;;;;21.33;38.69;100356.97;4976634;28;20031;-84
2022/10/22 10:18:02;;;;;;;0.45;0.45;;;;;;;21.55;38.32;100345.19;4972909;28;20113;-84
2022/10/22 10:20:45;;;;;;;1.25;0.80;;;;;;;21.75;38.10;100347.25;4971763;28;20523;-84
2022/10/22 10:23:17;;;;;;;1.48;0.85;;;;;;;21.78;38.05;100352.13;4955120;28;20037;-84
2022/10/22 10:25:51;;;;;;;1.20;0.80;;;;;;;21.71;38.26;100346.94;4989369;28;20479;-84
2022/10/22 10:28:23;;;;;;;0.88;0.63;;;;;;;21.61;38.39;100343.31;4972593;28;20143;-84
2022/10/22 10:31:05;;;;;;;1.10;0.70;;;;;;;21.45;38.52;100343.19;4974703;28;20634;-84
2022/10/22 10:33:49;;;;;;;1.40;0.80;;;;;;;21.33;39.04;100334.41;4967894;28;20427;-84
2022/10/22 10:36:31;;;;;;;1.23;0.90;;;;;;;21.23;38.99;100337.03;4968699;28;20054;-84
2022/10/22 10:39:46;;;;;;;0.98;0.65;;;;;;;20.91;39.34;100294.41;4936166;28;20049;-84
2022/10/22 10:42:23;;;;;;;0.80;0.80;;;;;;;20.99;39.38;100321.13;4938467;28;20035;-84
2022/10/22 10:44:51;;;;;;;0.88;0.60;;;;;;;20.96;39.61;100318.91;4987670;28;20026;-83
2022/10/22 10:47:33;;;;;;;1.70;0.80;;;;;;;20.92;39.52;100315.03;4969892;28;20033;-84
2022/10/22 10:50:33;;;;;;;0.60;0.60;;;;;;;20.85;39.80;100315.25;4972241;28;20030;-84
2022/10/22 10:53:18;;;;;;;0.95;0.88;;;;;;;20.85;39.51;100307.09;4959545;28;20490;-84
2022/10/22 10:55:49;;;;;;;1.08;0.60;;;;;;;20.82;39.70;100308.47;4955897;28;20035;-84
2022/10/22 10:58:24;;;;;;;1.63;0.70;;;;;;;20.75;39.61;100305.13;4968938;28;20023;-84
2022/10/22 11:00:56;;;;;;;0.90;0.85;;;;;;;20.65;39.83;100291.47;4949867;28;20025;-84
2022/10/22 11:03:33;;;;;;;0.75;0.68;;;;;;;20.63;39.87;100293.63;4968562;28;20026;-84
2022/10/22 11:06:19;;;;;;;0.85;0.85;;;;;;;20.49;39.92;100271.47;4940009;28;20051;-84
2022/10/22 11:09:04;;;;;;;0.85;0.70;;;;;;;20.58;39.84;100297.06;4952021;28;20035;-84
2022/10/22 11:11:40;;;;;;;1.00;0.73;;;;;;;20.59;39.74;100297.88;4958907;28;20551;-84
2022/10/22 11:14:18;;;;;;;1.00;0.80;;;;;;;20.49;40.47;100286.91;4982921;28;20491;-84
2022/10/22 11:16:53;;;;;;;1.02;0.88;;;;;;;20.62;39.96;100289.25;4965523;28;20113;-85
2022/10/22 11:19:25;;;;;;;0.88;0.80;;;;;;;20.81;39.64;100279.66;4953313;28;20476;-83
2022/10/22 11:22:08;;;;;;;0.95;0.80;;;;;;;21.06;39.22;100288.25;4968057;28;20396;-84
2022/10/22 11:24:37;;;;;;;0.90;0.80;;;;;;;21.31;38.85;100282.22;4957254;28;20141;-84
2022/10/22 11:27:22;;;;;;;1.10;0.93;;;;;;;21.46;38.58;100285.06;4969355;28;20163;-84
2022/10/22 11:29:51;;;;;;;0.93;0.82;;;;;;;21.46;38.65;100279.63;4962880;28;20035;-84
2022/10/22 11:32:18;;;;;;;1.10;0.80;;;;;;;21.38;38.82;100283.59;4974348;28;20488;-84
2022/10/22 11:34:55;;;;;;;1.42;0.88;;;;;;;21.29;39.02;100273.50;4931405;28;20027;-84